Time;durP1;ratioP1;P1;durP2;ratioP2;P2;SDS_P1;SDS_P2;PMS_P1;PMS_P2;Temp;Humidity;BMP_temperature;BMP_pressure;BME280_temperature;BME280_humidity;BME280_pressure;Samples;Min_cycle;Max_cycle;Signal;HPM_P1;HPM_P2
2023/12/28 00:02:07;;;;;;;9.40;4.82;;;7.00;99.90;;;;;;6178504;23;20013;-67
2023/12/28 00:04:53;;;;;;;6.05;3.97;;;6.90;99.90;;;;;;6159633;23;20020;-68
2023/12/28 00:07:40;;;;;;;6.63;4.10;;;7.00;99.90;;;;;;6158768;23;20048;-67
2023/12/28 00:10:27;;;;;;;7.78;4.78;;;7.00;99.90;;;;;;6182006;23;20013;-66
2023/12/28 00:13:13;;;;;;;9.80;4.82;;;7.00;99.90;;;;;;6180376;23;20005;-67
2023/12/28 00:15:59;;;;;;;7.65;4.00;;;7.00;99.90;;;;;;6179819;23;20009;-67
2023/12/28 00:18:45;;;;;;;7.03;4.30;;;7.00;99.90;;;;;;6180530;23;20012;-67
2023/12/28 00:21:31;;;;;;;6.40;3.65;;;7.00;99.90;;;;;;6180557;23;20456;-67
2023/12/28 00:24:20;;;;;;;7.32;4.30;;;7.00;99.90;;;;;;6181205;23;20060;-67
2023/12/28 00:27:06;;;;;;;7.28;3.70;;;6.90;99.90;;;;;;6182160;23;20028;-67
2023/12/28 00:29:52;;;;;;;6.78;3.78;;;7.00;99.90;;;;;;6180450;23;20071;-67
2023/12/28 00:32:38;;;;;;;6.78;4.13;;;7.00;99.90;;;;;;6179340;23;20052;-67
2023/12/28 00:35:24;;;;;;;6.97;3.30;;;7.00;99.90;;;;;;6180168;23;20051;-68
2023/12/28 00:38:10;;;;;;;7.70;4.28;;;7.00;99.90;;;;;;6179747;23;20006;-68
2023/12/28 00:40:56;;;;;;;6.35;3.58;;;7.00;99.90;;;;;;6179776;23;20446;-68
2023/12/28 00:43:41;;;;;;;4.97;3.30;;;7.00;99.90;;;;;;6179829;23;20104;-68
2023/12/28 00:46:28;;;;;;;7.60;4.47;;;7.00;99.90;;;;;;6181684;23;20020;-68
2023/12/28 00:49:14;;;;;;;5.95;3.67;;;7.00;99.90;;;;;;6180721;23;20013;-67
2023/12/28 00:52:00;;;;;;;5.70;3.53;;;7.10;99.90;;;;;;6181590;23;20033;-67
2023/12/28 00:54:45;;;;;;;7.13;3.72;;;7.10;99.90;;;;;;6178875;23;20017;-67
2023/12/28 00:57:32;;;;;;;6.43;3.65;;;7.10;99.90;;;;;;6179267;23;20075;-67
2023/12/28 01:00:18;;;;;;;6.38;4.47;;;7.10;99.90;;;;;;6180411;23;20017;-67
2023/12/28 01:03:04;;;;;;;9.40;4.07;;;7.10;99.90;;;;;;6179156;23;20023;-67
2023/12/28 01:05:52;;;;;;;6.78;3.75;;;7.10;99.90;;;;;;6157962;23;20016;-67
2023/12/28 01:08:38;;;;;;;4.75;3.83;;;7.10;99.90;;;;;;6180036;23;20017;-67
2023/12/28 01:11:24;;;;;;;6.25;3.47;;;7.10;99.90;;;;;;6180819;23;20006;-67
2023/12/28 01:14:10;;;;;;;7.07;3.85;;;7.10;99.90;;;;;;6179557;23;20010;-67
2023/12/28 01:16:56;;;;;;;6.80;3.55;;;7.10;99.90;;;;;;6157660;23;20009;-67
2023/12/28 01:19:42;;;;;;;6.20;3.50;;;7.10;99.90;;;;;;6180578;23;20037;-67
2023/12/28 01:22:28;;;;;;;5.85;3.53;;;7.20;99.90;;;;;;6179585;23;20015;-67
2023/12/28 01:25:13;;;;;;;5.30;3.42;;;7.20;99.90;;;;;;6180986;23;20005;-67
2023/12/28 01:27:59;;;;;;;6.03;3.40;;;7.20;99.90;;;;;;6180938;23;20048;-68
2023/12/28 01:30:45;;;;;;;6.45;4.03;;;7.20;99.90;;;;;;6180228;23;20013;-68
2023/12/28 01:33:31;;;;;;;4.72;3.50;;;7.10;99.90;;;;;;6180830;23;20009;-66
2023/12/28 01:36:18;;;;;;;6.10;3.97;;;7.10;99.90;;;;;;6179884;23;20017;-66
2023/12/28 01:39:04;;;;;;;5.07;2.92;;;7.20;99.90;;;;;;6180812;23;20040;-66
2023/12/28 01:41:50;;;;;;;5.55;3.72;;;7.20;99.90;;;;;;6181246;23;20013;-66
2023/12/28 01:44:35;;;;;;;5.13;3.28;;;7.20;99.90;;;;;;6180709;23;20064;-67
2023/12/28 01:47:21;;;;;;;6.43;4.00;;;7.20;99.90;;;;;;6161829;23;20094;-67
2023/12/28 01:50:08;;;;;;;6.40;3.90;;;7.20;99.90;;;;;;6180813;23;20071;-65
2023/12/28 01:52:55;;;;;;;8.68;4.28;;;7.20;99.90;;;;;;6180023;23;20008;-67
2023/12/28 01:55:41;;;;;;;8.30;4.43;;;7.20;99.90;;;;;;6180424;23;20438;-66
2023/12/28 01:58:32;;;;;;;8.05;4.75;;;7.20;99.90;;;;;;6181080;23;20537;-66
2023/12/28 02:01:19;;;;;;;7.32;3.42;;;7.20;99.90;;;;;;6182646;23;20005;-66
2023/12/28 02:04:06;;;;;;;5.40;3.30;;;7.20;99.90;;;;;;6182353;23;20397;-66
2023/12/28 02:06:56;;;;;;;5.70;3.75;;;7.20;99.90;;;;;;6181473;23;20045;-67
2023/12/28 02:09:42;;;;;;;5.57;3.20;;;7.20;99.90;;;;;;6181361;23;20009;-66
2023/12/28 02:12:28;;;;;;;5.28;3.40;;;7.20;99.90;;;;;;6180836;23;20005;-66
2023/12/28 02:15:14;;;;;;;6.90;3.35;;;7.30;99.90;;;;;;6180325;23;20512;-67
2023/12/28 02:18:15;;;;;;;6.45;2.95;;;7.30;99.90;;;;;;6182514;23;20012;-66
2023/12/28 02:21:02;;;;;;;6.25;3.28;;;7.30;99.90;;;;;;6182226;23;20013;-67
2023/12/28 02:23:49;;;;;;;4.88;3.20;;;7.30;99.90;;;;;;6182479;23;20056;-66
2023/12/28 02:26:35;;;;;;;5.70;2.65;;;7.40;99.90;;;;;;6182713;23;20013;-66
2023/12/28 02:29:21;;;;;;;3.78;2.38;;;7.40;99.90;;;;;;6180429;23;20024;-67
2023/12/28 02:32:09;;;;;;;3.97;2.08;;;7.50;99.90;;;;;;6182253;23;20013;-67
2023/12/28 02:35:09;;;;;;;4.63;2.58;;;7.60;99.90;;;;;;6182615;23;20402;-72
2023/12/28 02:37:59;;;;;;;3.03;2.20;;;7.60;99.90;;;;;;6159666;23;20315;-74
2023/12/28 02:40:47;;;;;;;3.78;2.10;;;7.70;99.90;;;;;;6179621;23;20020;-75
2023/12/28 02:43:34;;;;;;;4.00;2.20;;;7.80;99.90;;;;;;6183097;23;20345;-74
2023/12/28 02:46:20;;;;;;;5.28;1.80;;;7.90;99.90;;;;;;6181464;23;20083;-73
2023/12/28 02:49:06;;;;;;;3.13;2.00;;;8.00;99.90;;;;;;6181637;23;20008;-73
2023/12/28 02:51:51;;;;;;;5.85;2.25;;;8.10;99.90;;;;;;6180945;23;20345;-72
2023/12/28 02:54:37;;;;;;;3.38;2.30;;;8.20;99.90;;;;;;6181370;23;20013;-73
2023/12/28 02:57:23;;;;;;;4.15;2.10;;;8.30;99.90;;;;;;6180664;23;20025;-72
2023/12/28 03:00:13;;;;;;;4.18;1.95;;;8.30;99.90;;;;;;6181167;23;20330;-65
2023/12/28 03:02:59;;;;;;;3.85;2.22;;;8.40;99.90;;;;;;6182240;23;20028;-64
2023/12/28 03:05:45;;;;;;;2.70;1.67;;;8.60;99.90;;;;;;6181628;23;20127;-64
2023/12/28 03:08:31;;;;;;;3.85;1.70;;;8.60;99.90;;;;;;6181468;23;20367;-64
2023/12/28 03:11:17;;;;;;;4.03;1.88;;;8.70;99.80;;;;;;6180355;23;20331;-64
2023/12/28 03:14:03;;;;;;;2.45;1.63;;;8.70;99.60;;;;;;6180466;23;20032;-64
2023/12/28 03:16:49;;;;;;;4.60;2.45;;;8.90;99.50;;;;;;6181076;23;20016;-64
2023/12/28 03:19:36;;;;;;;3.88;2.20;;;9.00;99.30;;;;;;6182377;23;20076;-64
2023/12/28 03:22:22;;;;;;;3.13;1.83;;;9.00;99.10;;;;;;6181519;23;20016;-65
2023/12/28 03:25:08;;;;;;;4.72;2.40;;;9.10;99.00;;;;;;6180980;23;20017;-64
2023/12/28 03:27:54;;;;;;;3.13;1.80;;;9.20;98.90;;;;;;6179834;23;20350;-64
2023/12/28 03:30:40;;;;;;;2.50;1.40;;;9.20;98.70;;;;;;6180812;23;20037;-65
2023/12/28 03:33:27;;;;;;;2.38;1.48;;;9.30;98.60;;;;;;6181394;23;20001;-64
2023/12/28 03:36:19;;;;;;;2.83;1.85;;;9.40;98.40;;;;;;6180510;23;20009;-64
2023/12/28 03:39:05;;;;;;;2.97;1.70;;;9.50;98.20;;;;;;6182206;23;20013;-64
2023/12/28 03:41:55;;;;;;;3.90;1.85;;;9.50;98.10;;;;;;6180690;23;20005;-73
2023/12/28 03:44:41;;;;;;;2.55;1.60;;;9.60;98.10;;;;;;6180678;23;20369;-72
2023/12/28 03:47:27;;;;;;;3.35;2.22;;;9.60;97.90;;;;;;6180252;23;20473;-74
2023/12/28 03:50:12;;;;;;;2.65;1.60;;;9.70;97.80;;;;;;6180575;23;20430;-73
2023/12/28 03:52:59;;;;;;;4.10;2.17;;;9.70;97.80;;;;;;6179433;23;20035;-72
2023/12/28 03:55:45;;;;;;;2.78;1.77;;;9.70;97.90;;;;;;6179720;23;20041;-72
2023/12/28 03:58:30;;;;;;;2.67;1.40;;;9.80;98.00;;;;;;6181113;23;20025;-71
2023/12/28 04:01:20;;;;;;;2.83;1.83;;;9.80;98.00;;;;;;6181625;23;20013;-72
2023/12/28 04:04:06;;;;;;;3.10;1.60;;;9.80;98.10;;;;;;6180474;23;20024;-71
2023/12/28 04:06:51;;;;;;;3.15;1.48;;;9.80;98.10;;;;;;6179848;23;20473;-72
2023/12/28 04:09:40;;;;;;;2.85;1.50;;;9.80;98.10;;;;;;6179806;23;20009;-71
2023/12/28 04:12:28;;;;;;;2.55;1.67;;;9.90;98.10;;;;;;6179864;23;20036;-73
2023/12/28 04:15:14;;;;;;;4.25;1.55;;;9.90;98.10;;;;;;6178769;23;20023;-73
2023/12/28 04:17:59;;;;;;;3.00;1.65;;;9.90;98.10;;;;;;6179054;23;20391;-73
2023/12/28 04:20:45;;;;;;;3.08;1.60;;;9.90;98.00;;;;;;6180029;23;20013;-73
2023/12/28 04:23:31;;;;;;;2.13;1.40;;;10.00;98.00;;;;;;6179735;23;20021;-74
2023/12/28 04:26:20;;;;;;;2.70;1.60;;;10.00;97.90;;;;;;6181586;23;20374;-74
2023/12/28 04:29:07;;;;;;;3.47;1.90;;;10.00;97.80;;;;;;6181216;23;20013;-74
2023/12/28 04:31:53;;;;;;;5.25;1.85;;;10.00;97.70;;;;;;6180705;23;20524;-74
2023/12/28 04:34:39;;;;;;;3.42;1.77;;;10.00;97.70;;;;;;6179887;23;20020;-74
2023/12/28 04:37:26;;;;;;;2.92;1.65;;;10.10;97.60;;;;;;6180393;23;20084;-75
2023/12/28 04:40:14;;;;;;;4.15;1.85;;;10.10;97.50;;;;;;6180064;23;20013;-75
2023/12/28 04:43:00;;;;;;;3.28;2.03;;;10.10;97.40;;;;;;6179967;23;20021;-73
2023/12/28 04:45:46;;;;;;;3.38;1.60;;;10.20;97.30;;;;;;6180116;23;20009;-73
2023/12/28 04:48:32;;;;;;;2.30;1.42;;;10.20;97.30;;;;;;6180879;23;20438;-74
2023/12/28 04:51:18;;;;;;;5.57;2.45;;;10.20;97.10;;;;;;6182008;23;20063;-72
2023/12/28 04:54:04;;;;;;;3.03;1.55;;;10.20;97.00;;;;;;6180257;23;20450;-72
2023/12/28 04:56:50;;;;;;;2.40;1.50;;;10.30;97.00;;;;;;6180570;23;20389;-73
2023/12/28 04:59:40;;;;;;;3.63;1.60;;;10.30;96.90;;;;;;6179488;23;20458;-74
2023/12/28 05:02:26;;;;;;;2.00;1.60;;;10.30;96.80;;;;;;6158100;23;20009;-73
2023/12/28 05:05:12;;;;;;;4.30;1.70;;;10.30;96.80;;;;;;6179526;23;20096;-74
2023/12/28 05:07:58;;;;;;;1.60;1.30;;;10.30;96.70;;;;;;6181712;23;20009;-73
2023/12/28 05:10:44;;;;;;;2.42;1.73;;;10.30;96.90;;;;;;6182981;23;20005;-74
2023/12/28 05:13:30;;;;;;;3.20;1.65;;;10.30;96.60;;;;;;6180421;23;20015;-73
2023/12/28 05:16:16;;;;;;;3.75;1.95;;;10.40;96.80;;;;;;6182914;23;20037;-74
2023/12/28 05:19:02;;;;;;;3.10;1.60;;;10.40;96.50;;;;;;6182612;23;20016;-73
2023/12/28 05:21:48;;;;;;;2.58;1.65;;;10.40;96.50;;;;;;6183602;23;20005;-74
2023/12/28 05:24:34;;;;;;;2.22;1.40;;;10.40;96.40;;;;;;6181386;23;20357;-74
2023/12/28 05:27:20;;;;;;;5.30;2.10;;;10.40;96.30;;;;;;6182817;23;20028;-74
2023/12/28 05:30:06;;;;;;;6.25;1.90;;;10.40;96.20;;;;;;6182276;23;20013;-74
2023/12/28 05:32:52;;;;;;;2.33;1.60;;;10.40;96.20;;;;;;6181625;23;20434;-76
2023/12/28 05:35:38;;;;;;;3.97;1.80;;;10.40;96.10;;;;;;6181083;23;20013;-74
2023/12/28 05:38:24;;;;;;;2.17;1.45;;;10.50;96.10;;;;;;6183504;23;20009;-75
2023/12/28 05:41:13;;;;;;;4.32;1.88;;;10.40;96.00;;;;;;6181946;23;20385;-76
2023/12/28 05:43:59;;;;;;;2.03;1.30;;;10.40;96.00;;;;;;6181478;23;20017;-78
2023/12/28 05:46:45;;;;;;;2.45;1.55;;;10.40;96.00;;;;;;6185518;23;20031;-77
2023/12/28 05:49:31;;;;;;;4.05;1.73;;;10.40;96.00;;;;;;6162728;23;20442;-78
2023/12/28 05:52:18;;;;;;;5.00;2.22;;;10.40;96.00;;;;;;6182107;23;20017;-75
2023/12/28 05:55:05;;;;;;;2.90;1.52;;;10.40;96.00;;;;;;6183884;23;20005;-72
2023/12/28 05:57:50;;;;;;;3.05;1.70;;;10.40;96.00;;;;;;6180489;23;20272;-72
2023/12/28 06:00:36;;;;;;;2.22;1.48;;;10.40;96.00;;;;;;6182958;23;20093;-73
2023/12/28 06:03:27;;;;;;;3.03;1.70;;;10.40;96.00;;;;;;6182695;23;20021;-73
2023/12/28 06:06:13;;;;;;;2.67;1.70;;;10.40;96.10;;;;;;6181214;23;20497;-73
2023/12/28 06:08:59;;;;;;;2.38;1.35;;;10.40;96.20;;;;;;6181413;23;20024;-74
2023/12/28 06:11:45;;;;;;;1.60;1.23;;;10.50;96.30;;;;;;6182422;23;20008;-73
2023/12/28 06:14:31;;;;;;;2.03;1.48;;;10.50;96.40;;;;;;6160448;23;20147;-74
2023/12/28 06:17:18;;;;;;;2.40;1.55;;;10.50;96.40;;;;;;6179413;23;20063;-67
2023/12/28 06:20:05;;;;;;;2.65;1.77;;;10.50;96.50;;;;;;6182467;23;20032;-65
2023/12/28 06:22:51;;;;;;;2.30;1.77;;;10.50;96.60;;;;;;6180763;23;20005;-62
2023/12/28 06:25:36;;;;;;;3.70;1.50;;;10.50;96.60;;;;;;6158851;23;20021;-60
2023/12/28 06:28:22;;;;;;;3.75;1.90;;;10.60;96.70;;;;;;6182410;23;20013;-61
2023/12/28 06:31:08;;;;;;;2.28;1.60;;;10.50;96.70;;;;;;6180584;23;20017;-62
2023/12/28 06:33:54;;;;;;;3.20;1.50;;;10.60;96.80;;;;;;6181387;23;20063;-62
2023/12/28 06:36:40;;;;;;;3.50;1.50;;;10.50;96.80;;;;;;6181196;23;20013;-61
2023/12/28 06:39:26;;;;;;;4.03;1.55;;;10.50;96.80;;;;;;6180440;23;20005;-61
2023/12/28 06:42:12;;;;;;;2.50;1.83;;;10.50;96.90;;;;;;6180293;23;20009;-61
2023/12/28 06:44:58;;;;;;;2.40;1.50;;;10.60;96.90;;;;;;6181038;23;20028;-61
2023/12/28 06:47:44;;;;;;;3.15;1.98;;;10.50;96.90;;;;;;6179748;23;20012;-62
2023/12/28 06:50:30;;;;;;;2.92;1.52;;;10.60;97.00;;;;;;6181548;23;20009;-61
2023/12/28 06:53:16;;;;;;;4.03;1.88;;;10.60;97.00;;;;;;6183257;23;20430;-62
2023/12/28 06:56:02;;;;;;;5.72;2.05;;;10.60;97.10;;;;;;6182158;23;20049;-62
2023/12/28 06:58:48;;;;;;;3.72;2.00;;;10.60;97.10;;;;;;6180948;23;20012;-62
2023/12/28 07:01:34;;;;;;;3.67;1.73;;;10.50;97.10;;;;;;6181915;23;20009;-62
2023/12/28 07:04:21;;;;;;;2.55;1.60;;;10.60;97.20;;;;;;6179398;23;20346;-62
2023/12/28 07:07:06;;;;;;;3.05;1.95;;;10.60;97.20;;;;;;6177734;23;20089;-61
2023/12/28 07:09:52;;;;;;;4.80;2.08;;;10.60;97.30;;;;;;6180179;23;20013;-60
2023/12/28 07:12:38;;;;;;;4.10;2.20;;;10.50;97.30;;;;;;6181671;23;20333;-60
2023/12/28 07:15:25;;;;;;;4.72;1.90;;;10.50;97.50;;;;;;6181624;23;20012;-62
2023/12/28 07:18:11;;;;;;;2.78;1.77;;;10.50;97.40;;;;;;6180323;23;20005;-62
2023/12/28 07:20:57;;;;;;;2.53;1.58;;;10.50;97.40;;;;;;6180898;23;20461;-63
2023/12/28 07:23:48;;;;;;;2.35;1.70;;;10.50;97.50;;;;;;6181365;23;20020;-61
2023/12/28 07:26:34;;;;;;;4.68;1.77;;;10.50;97.50;;;;;;6180361;23;20009;-61
2023/12/28 07:29:20;;;;;;;3.35;1.75;;;10.40;97.50;;;;;;6180443;23;20112;-61
2023/12/28 07:32:09;;;;;;;3.08;1.70;;;10.40;97.50;;;;;;6181132;23;20044;-61
2023/12/28 07:34:55;;;;;;;3.83;1.73;;;10.40;97.60;;;;;;6180840;23;20355;-60
2023/12/28 07:37:41;;;;;;;3.95;1.60;;;10.40;97.60;;;;;;6177226;23;20050;-61
2023/12/28 07:40:27;;;;;;;3.85;1.77;;;10.40;97.70;;;;;;6179581;23;20024;-61
2023/12/28 07:43:14;;;;;;;2.30;1.45;;;10.40;97.70;;;;;;6179644;23;20023;-61
2023/12/28 07:45:59;;;;;;;3.38;1.77;;;10.40;97.80;;;;;;6181441;23;20066;-62
2023/12/28 07:48:45;;;;;;;2.63;2.00;;;10.40;97.80;;;;;;6180841;23;20226;-62
2023/12/28 07:51:31;;;;;;;2.13;1.40;;;10.40;97.80;;;;;;6183043;23;20084;-61
2023/12/28 07:54:17;;;;;;;2.67;1.55;;;10.40;97.90;;;;;;6178870;23;20056;-62
2023/12/28 07:57:04;;;;;;;4.03;2.20;;;10.40;97.90;;;;;;6179256;23;20091;-62
2023/12/28 07:59:50;;;;;;;3.95;1.95;;;10.40;98.00;;;;;;6181274;23;20013;-62
2023/12/28 08:02:36;;;;;;;4.95;1.67;;;10.40;98.00;;;;;;6181239;23;20096;-61
2023/12/28 08:05:22;;;;;;;3.42;1.55;;;10.40;98.10;;;;;;6180531;23;20064;-61
2023/12/28 08:08:08;;;;;;;3.08;1.95;;;10.40;98.10;;;;;;6180035;23;20421;-62
2023/12/28 08:10:53;;;;;;;2.97;1.63;;;10.40;98.10;;;;;;6180034;23;20013;-70
2023/12/28 08:13:43;;;;;;;4.38;2.60;;;10.40;98.20;;;;;;6179127;23;20009;-69
2023/12/28 08:16:28;;;;;;;3.67;2.05;;;10.50;98.30;;;;;;6160275;23;20013;-69
2023/12/28 08:19:14;;;;;;;2.83;1.65;;;10.50;98.40;;;;;;6180869;23;20039;-69
2023/12/28 08:22:00;;;;;;;3.58;1.73;;;10.60;98.40;;;;;;6180065;23;20307;-69
2023/12/28 08:24:46;;;;;;;3.10;1.88;;;10.60;98.50;;;;;;6179310;23;20048;-69
2023/12/28 08:27:32;;;;;;;2.90;1.85;;;10.60;98.50;;;;;;6180102;23;20048;-68
2023/12/28 08:30:19;;;;;;;2.78;1.80;;;10.60;98.50;;;;;;6178987;23;20013;-68
2023/12/28 08:33:05;;;;;;;3.08;1.90;;;10.70;98.50;;;;;;6179293;23;20017;-68
2023/12/28 08:35:51;;;;;;;2.97;1.58;;;10.70;98.50;;;;;;6179627;23;20084;-69
2023/12/28 08:38:37;;;;;;;2.42;1.75;;;10.70;98.50;;;;;;6180212;23;20040;-69
2023/12/28 08:41:26;;;;;;;2.55;2.03;;;10.80;98.50;;;;;;6181291;23;20032;-69
2023/12/28 08:44:12;;;;;;;3.65;1.95;;;10.80;98.50;;;;;;6183863;23;20516;-71
2023/12/28 08:46:58;;;;;;;2.67;1.90;;;10.80;98.50;;;;;;6182532;23;20012;-70
2023/12/28 08:49:44;;;;;;;3.65;1.92;;;10.90;98.50;;;;;;6182556;23;20028;-70
2023/12/28 08:52:30;;;;;;;2.97;2.17;;;10.80;98.40;;;;;;6182222;23;20009;-71
2023/12/28 08:55:16;;;;;;;3.95;2.05;;;10.80;98.40;;;;;;6180771;23;20012;-71
2023/12/28 08:58:02;;;;;;;3.15;1.80;;;10.80;98.40;;;;;;6182565;23;20017;-71
2023/12/28 09:00:48;;;;;;;3.53;2.03;;;10.90;98.40;;;;;;6181583;23;20463;-71
2023/12/28 09:03:34;;;;;;;4.47;2.22;;;10.90;98.30;;;;;;6180710;23;20026;-71
2023/12/28 09:06:21;;;;;;;2.80;1.83;;;10.90;98.40;;;;;;6182245;23;20005;-72
2023/12/28 09:09:07;;;;;;;2.42;1.70;;;10.90;98.30;;;;;;6180990;23;20020;-73
2023/12/28 09:11:53;;;;;;;3.25;1.70;;;10.90;98.30;;;;;;6183943;23;20011;-72
2023/12/28 09:14:39;;;;;;;3.45;2.10;;;10.90;98.30;;;;;;6181865;23;20013;-70
2023/12/28 09:17:25;;;;;;;5.20;2.33;;;10.90;98.30;;;;;;6181808;23;20009;-72
2023/12/28 09:20:11;;;;;;;3.72;2.38;;;10.90;98.30;;;;;;6180774;23;20009;-72
2023/12/28 09:22:57;;;;;;;2.97;2.08;;;10.90;98.20;;;;;;6179186;23;20013;-72
2023/12/28 09:25:43;;;;;;;4.00;2.47;;;10.90;98.20;;;;;;6183127;23;20481;-70
2023/12/28 09:28:30;;;;;;;3.33;2.15;;;10.90;98.30;;;;;;6182112;23;20005;-71
2023/12/28 09:31:16;;;;;;;5.07;2.38;;;10.90;98.20;;;;;;6181642;23;20334;-71
2023/12/28 09:34:02;;;;;;;4.85;2.22;;;10.90;98.20;;;;;;6182412;23;20611;-71
2023/12/28 09:36:48;;;;;;;4.28;2.25;;;10.90;98.20;;;;;;6181741;23;20500;-71
2023/12/28 09:39:33;;;;;;;5.03;2.53;;;10.90;98.30;;;;;;6181060;23;20088;-72
2023/12/28 09:42:29;;;;;;;5.63;3.05;;;10.90;98.20;;;;;;6182453;23;20100;-73
2023/12/28 09:45:15;;;;;;;3.65;2.33;;;10.80;98.20;;;;;;6183005;23;20016;-71
2023/12/28 09:48:02;;;;;;;2.78;2.03;;;10.80;98.20;;;;;;6179882;23;20028;-70
2023/12/28 09:50:54;;;;;;;5.03;2.63;;;10.80;98.20;;;;;;6181685;23;20100;-72
2023/12/28 09:53:40;;;;;;;3.80;2.38;;;10.70;98.10;;;;;;6181640;23;20009;-70
2023/12/28 09:56:27;;;;;;;3.53;2.45;;;10.60;98.10;;;;;;6180234;23;20032;-71
2023/12/28 09:59:15;;;;;;;8.95;2.75;;;10.60;98.40;;;;;;6181445;23;20012;-70
2023/12/28 10:02:03;;;;;;;4.53;2.55;;;10.60;98.20;;;;;;6182037;23;20013;-70
2023/12/28 10:04:49;;;;;;;4.40;2.50;;;10.60;98.50;;;;;;6180998;23;20125;-71
2023/12/28 10:07:44;;;;;;;7.43;3.00;;;10.60;98.30;;;;;;6180734;23;20013;-75
2023/12/28 10:10:30;;;;;;;4.65;2.90;;;10.60;98.40;;;;;;6182533;23;20041;-70
2023/12/28 10:13:16;;;;;;;4.30;2.65;;;10.60;98.40;;;;;;6181452;23;20016;-68
2023/12/28 10:16:03;;;;;;;5.43;2.72;;;10.60;98.40;;;;;;6178778;23;20338;-67
2023/12/28 10:18:49;;;;;;;3.88;2.65;;;10.50;98.40;;;;;;6181245;23;20064;-68
2023/12/28 10:21:35;;;;;;;5.65;2.42;;;10.50;98.40;;;;;;6179730;23;20341;-68
2023/12/28 10:24:21;;;;;;;6.30;2.88;;;10.50;98.50;;;;;;6179353;23;20446;-67
2023/12/28 10:27:07;;;;;;;3.22;2.10;;;10.50;98.50;;;;;;6181582;23;20009;-67
2023/12/28 10:29:56;;;;;;;5.53;2.88;;;10.50;98.60;;;;;;6180522;23;20059;-67
2023/12/28 10:32:42;;;;;;;4.38;2.70;;;10.50;98.70;;;;;;6180195;23;20016;-68
2023/12/28 10:35:28;;;;;;;6.70;3.15;;;10.60;98.70;;;;;;6182331;23;20009;-68
2023/12/28 10:38:17;;;;;;;5.22;3.20;;;10.60;98.70;;;;;;6182037;23;20071;-68
2023/12/28 10:41:07;;;;;;;6.28;4.05;;;10.60;98.70;;;;;;6179823;23;20009;-66
2023/12/28 10:44:19;;;;;;;4.45;3.08;;;10.60;98.70;;;;;;6179282;23;20028;-66
2023/12/28 10:47:12;;;;;;;4.00;2.70;;;10.70;98.80;;;;;;6179958;23;20009;-67
2023/12/28 10:50:02;;;;;;;5.53;2.63;;;10.70;98.90;;;;;;6181804;23;20052;-69
2023/12/28 10:52:53;;;;;;;6.97;2.88;;;10.70;98.90;;;;;;6181361;23;20016;-69
2023/12/28 10:56:01;;;;;;;4.05;2.67;;;10.80;98.80;;;;;;6179636;23;20462;-68
2023/12/28 10:59:06;;;;;;;4.75;3.17;;;10.80;98.80;;;;;;6182419;23;20017;-68
2023/12/28 11:01:56;;;;;;;5.53;3.08;;;10.80;98.80;;;;;;6181239;23;20005;-68
2023/12/28 11:04:48;;;;;;;5.65;2.88;;;10.80;98.80;;;;;;6180495;23;20024;-69
2023/12/28 11:07:36;;;;;;;4.68;3.28;;;10.90;98.80;;;;;;6179053;23;20009;-68
2023/12/28 11:10:24;;;;;;;7.25;3.17;;;10.90;98.90;;;;;;6178301;23;20501;-69
2023/12/28 11:13:11;;;;;;;4.38;2.80;;;10.90;98.80;;;;;;6182294;23;20009;-68
2023/12/28 11:15:58;;;;;;;5.05;2.83;;;10.90;98.80;;;;;;6181202;23;20504;-69
2023/12/28 11:18:44;;;;;;;4.70;2.80;;;11.00;98.80;;;;;;6178647;23;20405;-70
2023/12/28 11:21:31;;;;;;;4.22;2.60;;;11.00;98.80;;;;;;6181106;23;20119;-67
2023/12/28 11:24:18;;;;;;;5.78;3.10;;;11.10;98.80;;;;;;6180041;23;20434;-69
2023/12/28 11:27:05;;;;;;;5.68;3.50;;;11.10;98.80;;;;;;6181234;23;20443;-69
2023/12/28 11:29:52;;;;;;;10.45;4.05;;;11.20;98.80;;;;;;6180502;23;20512;-67
2023/12/28 11:32:42;;;;;;;3.42;2.20;;;11.30;98.80;;;;;;6179176;23;20092;-67
2023/12/28 11:35:39;;;;;;;4.78;2.70;;;11.40;98.80;;;;;;6180350;23;20013;-67
2023/12/28 11:38:26;;;;;;;5.72;2.88;;;11.50;98.70;;;;;;6180661;23;20020;-67
2023/12/28 11:41:16;;;;;;;4.35;2.55;;;11.60;98.70;;;;;;6180391;23;20088;-67
2023/12/28 11:44:07;;;;;;;4.93;2.80;;;11.60;98.50;;;;;;6180920;23;20389;-67
2023/12/28 11:46:53;;;;;;;5.55;2.55;;;11.70;98.40;;;;;;6180735;23;20329;-67
2023/12/28 11:49:42;;;;;;;5.28;2.90;;;11.80;98.30;;;;;;6181183;23;20350;-67
2023/12/28 11:52:31;;;;;;;6.28;2.72;;;11.80;98.20;;;;;;6179258;23;20041;-67
2023/12/28 11:55:23;;;;;;;5.45;2.55;;;11.80;98.10;;;;;;6180778;23;20067;-67
2023/12/28 11:58:09;;;;;;;4.10;2.40;;;11.90;98.10;;;;;;6181955;23;20104;-66
2023/12/28 12:00:55;;;;;;;5.60;3.22;;;11.90;98.00;;;;;;6181738;23;20044;-67
2023/12/28 12:03:41;;;;;;;3.83;2.40;;;11.90;98.00;;;;;;6182475;23;20025;-67
2023/12/28 12:06:28;;;;;;;4.53;2.55;;;11.90;97.90;;;;;;6180712;23;20044;-67
2023/12/28 12:09:14;;;;;;;5.47;3.10;;;11.90;97.90;;;;;;6181102;23;20144;-65
2023/12/28 12:12:01;;;;;;;4.45;2.58;;;11.90;97.90;;;;;;6178198;23;20438;-66
2023/12/28 12:14:47;;;;;;;4.93;2.47;;;11.90;97.90;;;;;;6178357;23;20067;-67
2023/12/28 12:17:33;;;;;;;8.60;3.40;;;11.90;97.80;;;;;;6179468;23;20084;-66
2023/12/28 12:20:20;;;;;;;4.97;2.65;;;11.90;97.90;;;;;;6182754;23;20005;-67
2023/12/28 12:23:06;;;;;;;7.68;3.17;;;11.90;97.80;;;;;;6179649;23;20013;-67
2023/12/28 12:25:52;;;;;;;5.03;2.60;;;11.90;97.80;;;;;;6179171;23;20013;-68
2023/12/28 12:28:37;;;;;;;6.35;2.55;;;11.90;97.80;;;;;;6181691;23;20291;-67
2023/12/28 12:31:26;;;;;;;7.40;3.17;;;11.90;97.70;;;;;;6182004;23;20012;-67
2023/12/28 12:34:16;;;;;;;4.00;2.20;;;11.90;97.80;;;;;;6180782;23;20370;-67
2023/12/28 12:37:03;;;;;;;4.35;2.70;;;11.90;97.70;;;;;;6181788;23;20096;-67
2023/12/28 12:39:49;;;;;;;5.72;3.50;;;11.90;97.70;;;;;;6181042;23;20005;-67
2023/12/28 16:02:34;;;;;;;5.90;2.80;;;11.30;97.60;;;;;;6151912;23;20017;-69
2023/12/28 16:05:20;;;;;;;4.95;2.50;;;11.30;97.60;;;;;;6151051;23;20030;-70
2023/12/28 16:08:06;;;;;;;4.63;2.75;;;11.30;97.60;;;;;;6148655;23;20009;-68
2023/12/28 16:10:52;;;;;;;5.55;2.95;;;11.20;97.60;;;;;;6149893;23;20014;-69
2023/12/28 16:13:39;;;;;;;7.00;4.00;;;11.20;97.70;;;;;;6151542;23;20002;-68
2023/12/28 16:16:25;;;;;;;9.05;3.67;;;11.20;97.70;;;;;;6150022;23;20051;-68
2023/12/28 16:19:12;;;;;;;6.93;3.65;;;11.20;97.70;;;;;;6151253;23;20065;-68
2023/12/28 16:21:58;;;;;;;7.13;3.28;;;11.20;97.80;;;;;;6151609;23;20506;-69
2023/12/28 16:24:44;;;;;;;6.32;3.45;;;11.20;97.80;;;;;;6127101;23;20133;-69
2023/12/28 16:27:30;;;;;;;7.28;4.18;;;11.10;97.80;;;;;;6147410;23;20233;-69
2023/12/28 16:30:16;;;;;;;6.35;3.25;;;11.10;97.80;;;;;;6149841;23;20006;-70
2023/12/28 16:33:03;;;;;;;4.95;3.00;;;11.10;97.90;;;;;;6150260;23;20064;-69
2023/12/28 16:35:49;;;;;;;5.63;3.13;;;11.10;97.90;;;;;;6150628;23;20382;-69
2023/12/28 16:38:35;;;;;;;4.43;2.72;;;11.10;97.90;;;;;;6150363;23;20431;-69
2023/12/28 16:41:21;;;;;;;9.50;3.25;;;11.10;97.90;;;;;;6150330;23;20013;-69
2023/12/28 16:44:07;;;;;;;5.13;3.10;;;11.10;97.90;;;;;;6150839;23;20056;-69
2023/12/28 16:46:53;;;;;;;5.32;3.03;;;11.10;97.90;;;;;;6149193;23;20093;-69
2023/12/28 16:49:39;;;;;;;5.88;3.30;;;11.10;97.90;;;;;;6151276;23;20014;-68
2023/12/28 16:52:25;;;;;;;6.53;3.38;;;11.10;98.00;;;;;;6150202;23;20010;-69
2023/12/28 16:55:11;;;;;;;6.22;2.85;;;11.10;98.00;;;;;;6150169;23;20525;-69
2023/12/28 16:57:57;;;;;;;7.07;3.58;;;11.00;98.00;;;;;;6149522;23;20020;-69
2023/12/28 17:00:43;;;;;;;5.95;3.67;;;11.10;98.00;;;;;;6149461;23;20018;-70
2023/12/28 17:03:29;;;;;;;7.40;4.55;;;11.10;98.00;;;;;;6149888;23;20096;-69
2023/12/28 17:06:17;;;;;;;7.53;3.53;;;11.00;98.00;;;;;;6151505;23;20014;-69
2023/12/28 17:09:07;;;;;;;6.70;4.15;;;11.10;98.30;;;;;;6151819;23;20149;-69
2023/12/28 17:12:10;;;;;;;7.60;3.65;;;11.00;98.00;;;;;;6152046;23;20013;-68
2023/12/28 17:14:57;;;;;;;5.72;3.25;;;11.00;98.10;;;;;;6152633;23;20010;-69
2023/12/28 17:17:44;;;;;;;5.78;3.40;;;11.00;98.00;;;;;;6153156;23;20013;-69
2023/12/28 17:20:30;;;;;;;5.90;3.72;;;11.00;98.20;;;;;;6151938;23;20010;-70
2023/12/28 17:23:19;;;;;;;7.75;4.28;;;11.00;98.00;;;;;;6152128;23;20014;-68
2023/12/28 17:26:17;;;;;;;10.07;4.70;;;11.00;98.10;;;;;;6150673;23;20044;-69
2023/12/28 17:29:07;;;;;;;8.32;3.92;;;11.00;98.10;;;;;;6151257;23;20353;-68
2023/12/28 17:31:54;;;;;;;7.13;3.83;;;11.00;98.10;;;;;;6152649;23;20013;-69
2023/12/28 17:34:41;;;;;;;7.65;3.70;;;11.00;98.10;;;;;;6151608;23;20014;-69
2023/12/28 17:37:28;;;;;;;8.50;5.00;;;11.00;98.00;;;;;;6153509;23;20021;-69
2023/12/28 17:40:14;;;;;;;6.82;3.97;;;11.00;98.00;;;;;;6152298;23;20496;-69
2023/12/28 17:43:09;;;;;;;8.32;3.88;;;11.00;98.00;;;;;;6152629;23;20010;-69
2023/12/28 17:46:05;;;;;;;6.07;3.53;;;11.00;98.00;;;;;;6153199;23;20045;-69
2023/12/28 17:48:55;;;;;;;4.22;2.88;;;11.00;98.00;;;;;;6151376;23;20233;-69
2023/12/28 17:51:41;;;;;;;5.57;3.15;;;11.00;98.00;;;;;;6150749;23;20005;-69
2023/12/28 17:54:27;;;;;;;4.70;2.72;;;11.00;98.00;;;;;;6151633;23;20013;-69